Skip to Main Content
SEARCH:
Location Air RH Dwp Precip Type Wind Speed Wind Gust Direction Pavement Temperature Date/Time
Hatem Bridge US 40 E/B 32 55 18 None 24 mph 27 mph N 38 - 38 12/14/2017 11:36:00 AM
I-270 at I-370 34 50 18 None Calm 8 mph W 40 - 43 12/14/2017 11:35:00 AM
I-270 at MD-109 34 54 20 None 5 mph 16 mph W 38 - 43 12/14/2017 11:35:00 AM
I-495 at American Legion Bridge 38 46 19 None 8 mph 24 mph W 46 - 47 12/14/2017 11:35:00 AM
I-68 at MD-219 19 94 18 None 10 mph 21 mph W 24 - 26 12/14/2017 11:35:00 AM
I-68 at Savage Mt 22 78 16 None 8 mph 20 mph W 35 - 36 12/14/2017 11:35:00 AM
I-68 at Sideling Hill 29 62 18 None 11 mph 22 mph NE 45 - 45 12/14/2017 11:35:00 AM
I-68 at WV Line 23 79 18 None Calm 9 mph W 28 - 30 12/14/2017 11:35:00 AM
I-695 at I-83 36 51 20 None Calm 13 mph NW 42 - 46 12/14/2017 11:35:00 AM
I-70 at Fred-Wash Co. - - - No Data Available - - No Data Available -
I-70 at I-695 35 52 19 None 11 mph 21 mph W 43 - 47 12/14/2017 11:35:00 AM
I-70 at I-81 34 49 17 None 13 mph 27 mph NW - 12/14/2017 11:35:00 AM
I-70 at MD-27 - - - No Data Available - - No Data Available -
I-70 at MD-32 34 54 19 None 8 mph 16 mph NW 42 - 46 12/14/2017 11:35:00 AM
I-83 at MD-137 34 52 18 None 4 mph 17 mph N 43 - 43 12/14/2017 11:35:00 AM
I-95 at I-695 NE 36 50 19 None 8 mph 14 mph N 45 - 49 12/14/2017 11:36:00 AM
I-95 at Patuxent River 37 58 23 None 5 mph 21 mph N 43 - 45 12/14/2017 11:35:00 AM
I-95 at Tydings Bridge 36 54 21 None Calm 9 mph NE - 12/14/2017 11:35:00 AM
I-95/495 at I-295 41 49 23 None 11 mph 20 mph NW 43 - 46 12/14/2017 11:35:00 AM
I-97 at MD-100 37 50 20 None 18 mph 29 mph NW 42 - 45 12/14/2017 11:35:00 AM
I-97 at MD-32 36 55 21 None 12 mph 22 mph N 39 - 42 12/14/2017 11:35:00 AM
MD 20 at MD 21 37 50 21 None 14 mph 21 mph NW 52 - 52 12/14/2017 11:35:00 AM
MD 231 at Patuxent River 42 47 23 None 12 mph 24 mph NW 47 - 47 12/14/2017 11:35:00 AM
MD 260 at Cox Rd 40 51 23 None Calm 9 mph NW 45 - 45 12/14/2017 11:35:00 AM
MD-135 at Salt Dome 21 85 18 None 5 mph 15 mph W 32 - 32 12/14/2017 11:35:00 AM
MD-140 at MD-97 31 56 17 None 10 mph 23 mph N 43 - 43 12/14/2017 11:35:00 AM
MD-200 EB at Bonifant Rd 36 52 20 None 11 mph 18 mph NW 38 - 40 12/14/2017 11:36:00 AM
MD-200 WB at Muncaster Mill Rd 36 48 18 None 5 mph 14 mph W 41 - 42 12/14/2017 11:36:00 AM
MD-213 at Sassafras River 34 82 30 None 10 mph 17 mph N 46 - 46 12/14/2017 11:35:00 AM
MD-24 at Rock St Park 33 64 22 None Calm 9 mph NW 35 - 35 12/14/2017 11:35:00 AM
MD-30 at PA Line 28 63 18 None 16 mph 26 mph NW 39 - 39 12/14/2017 11:35:00 AM
MD-301 at MD-305 37 54 23 None 18 mph 25 mph NW 47 - 49 12/14/2017 11:35:00 AM
MD-33 at Knapps Narrows Drawbridge 39 60 27 None 19 mph 29 mph NW 45 - 45 12/14/2017 11:35:00 AM
MD-344 at MD-224 41 51 24 None 8 mph 20 mph NW 45 - 45 12/14/2017 11:35:00 AM
MD-4 at Patuxent River 46 50 28 None - - No Data Available 51 - 55 12/14/2017 11:35:00 AM
MD-404 at Choptank River 38 57 24 None 8 mph 21 mph NW 41 - 43 12/14/2017 11:35:00 AM
MD-43 at MD-150 37 52 21 None 6 mph 14 mph NW 42 - 43 12/14/2017 11:35:00 AM
MD-51 at Oldtown Salt Dome 34 52 18 None 4 mph 14 mph W 51 - 51 12/14/2017 11:35:00 AM
MD-64 at MD-418 32 53 17 None 13 mph 18 mph NW 47 - 48 12/14/2017 11:35:00 AM
US-1 at Baltimore / Harford Co. Line 36 51 19 None 5 mph 15 mph N 43 - 44 12/14/2017 11:35:00 AM
US-1 at Conowingo Dam 34 65 24 None Calm Calm W - 12/14/2017 11:35:00 AM
US-13 at US-113 44 46 25 None 18 mph 27 mph NW 59 - 60 12/14/2017 11:35:00 AM
US-13 at US-50 - - - No Data Available - - No Data Available -
US-15 at MD-140 33 47 15 None 7 mph 16 mph NW 39 - 45 12/14/2017 11:35:00 AM
US-301 at MD-5 40 48 22 None 5 mph 19 mph W 43 - 45 12/14/2017 11:35:00 AM
US-301 at Potomac 45 57 31 None 19 mph 24 mph N 53 - 54 12/14/2017 11:35:00 AM
US-301 on HWN Bridge - - - None - - No Data Available 46 - 46 12/14/2017 11:36:00 AM
US-340 at MD-180 34 51 18 None 13 mph 28 mph W 45 - 49 12/14/2017 11:35:00 AM
US-50 at Choptank 41 60 28 None 14 mph 25 mph NW 45 - 47 12/14/2017 11:35:00 AM
US-50 at I-95 40 41 19 None 16 mph 29 mph NW 44 - 48 12/14/2017 11:35:00 AM
US-50 at MD-2 37 54 23 None 11 mph 25 mph NW 41 - 42 12/14/2017 11:35:00 AM
US-50 at MD-331 44 48 26 None 14 mph 23 mph NW 53 - 59 12/14/2017 11:35:00 AM
US-50 at OC Drawbridge 44 46 25 None 24 mph 34 mph NW 58 - 58 12/14/2017 11:35:00 AM
US-50 at Table Rock Rd 20 87 17 Snow 11 mph 19 mph NW 31 - 31 12/14/2017 11:35:00 AM
US-50 Kent Narrow Bridge 40 58 26 None 15 mph 29 mph NW 47 - 48 12/14/2017 11:35:00 AM
WPL Pier 31 36 54 22 None 26 mph 29 mph NW 46 - 46 12/14/2017 11:36:00 AM
Location Air RH Dwp Precip Type Wind Speed Wind Gust Direction Pavement Temperature Date/Time